Time;durP1;ratioP1;P1;durP2;ratioP2;P2;SDS_P1;SDS_P2;PMS_P1;PMS_P2;Temp;Humidity;BMP_temperature;BMP_pressure;BME280_temperature;BME280_humidity;BME280_pressure;Samples;Min_cycle;Max_cycle;Signal;HPM_P1;HPM_P2
2021/01/02 00:02:41;;;;;;;82.30;40.00;;;;;;;2.78;95.09;101114.81;5048368;28;20056;-79
2021/01/02 00:05:09;;;;;;;74.85;38.42;;;;;;;2.73;94.89;101108.16;5028391;28;20033;-80
2021/01/02 00:07:56;;;;;;;79.95;39.47;;;;;;;2.82;94.42;101119.72;5050600;28;20037;-78
2021/01/02 00:10:23;;;;;;;78.20;37.45;;;;;;;2.75;94.76;101110.66;5058023;28;20021;-79
2021/01/02 00:13:36;;;;;;;76.38;38.40;;;;;;;2.72;94.44;101105.66;5052120;28;20030;-80
2021/01/02 00:16:10;;;;;;;75.10;36.13;;;;;;;2.76;94.06;101114.91;5034945;28;20062;-78
2021/01/02 00:18:44;;;;;;;74.28;37.00;;;;;;;2.86;93.94;101125.56;5049871;28;20059;-78
2021/01/02 00:21:27;;;;;;;75.57;36.15;;;;;;;2.80;93.89;101118.16;5034635;28;20107;-77
2021/01/02 00:24:04;;;;;;;74.07;37.03;;;;;;;2.79;94.48;101119.06;5057077;28;20041;-78
2021/01/02 00:26:33;;;;;;;68.28;34.65;;;;;;;2.82;94.34;101121.50;5057196;28;20047;-80
2021/01/02 00:29:01;;;;;;;75.10;36.03;;;;;;;2.78;94.51;101122.59;5056244;28;20095;-80
2021/01/02 00:31:50;;;;;;;72.80;35.88;;;;;;;2.72;94.81;101121.19;5033270;28;20053;-81
2021/01/02 00:34:27;;;;;;;70.88;35.25;;;;;;;2.67;95.21;101129.19;5012165;28;20523;-77
2021/01/02 00:37:04;;;;;;;65.30;33.65;;;;;;;2.70;94.96;101121.28;5020372;28;20072;-79
2021/01/02 00:39:41;;;;;;;69.25;36.60;;;;;;;2.73;94.14;101126.28;5012924;28;20055;-79
2021/01/02 00:42:09;;;;;;;63.17;34.72;;;;;;;2.69;94.26;101122.22;5012377;28;20033;-78
2021/01/02 00:44:40;;;;;;;71.93;37.10;;;;;;;2.71;94.01;101129.88;5040760;28;20104;-78
2021/01/02 00:47:07;;;;;;;72.90;37.80;;;;;;;2.66;94.35;101119.78;5033351;28;20037;-79
2021/01/02 00:49:32;;;;;;;70.30;37.42;;;;;;;2.70;93.95;101130.81;5051260;28;20541;-80
2021/01/02 00:52:11;;;;;;;71.72;36.88;;;;;;;2.70;93.43;101126.44;5051045;28;20140;-79
2021/01/02 00:54:54;;;;;;;69.93;37.03;;;;;;;2.72;93.55;101128.97;5034593;28;20506;-79
2021/01/02 00:57:36;;;;;;;72.47;35.80;;;;;;;2.69;93.28;101129.13;5042422;28;20037;-81
2021/01/02 01:00:06;;;;;;;76.88;37.05;;;;;;;2.70;93.43;101135.97;5031860;28;20037;-77
2021/01/02 01:03:01;;;;;;;71.20;35.88;;;;;;;2.67;93.38;101130.97;5042225;28;20040;-76
2021/01/02 01:05:36;;;;;;;70.85;35.40;;;;;;;2.60;93.69;101135.66;5046230;28;20057;-78
2021/01/02 01:08:03;;;;;;;71.43;35.28;;;;;;;2.60;93.62;101134.81;5022023;28;20034;-77
2021/01/02 01:10:31;;;;;;;71.65;36.67;;;;;;;2.61;93.49;101141.69;5037237;28;20083;-77
2021/01/02 01:13:15;;;;;;;69.53;35.08;;;;;;;2.59;93.63;101136.56;5067883;28;20123;-80
2021/01/02 01:15:41;;;;;;;75.88;35.28;;;;;;;2.43;93.85;101117.63;5034266;28;20126;-78
2021/01/02 01:18:44;;;;;;;69.78;35.53;;;;;;;2.52;93.53;101143.00;5008756;28;20073;-78
2021/01/02 01:21:15;;;;;;;71.13;34.28;;;;;;;2.46;93.57;101149.34;5052950;28;20115;-78
2021/01/02 01:24:02;;;;;;;70.72;34.08;;;;;;;2.45;93.20;101147.72;5019497;28;20137;-77
2021/01/02 01:26:55;;;;;;;64.82;32.85;;;;;;;2.39;93.21;101152.38;5054529;28;20060;-77
2021/01/02 01:29:25;;;;;;;67.43;33.08;;;;;;;2.33;93.75;101150.94;5034020;28;20749;-77
2021/01/02 01:31:56;;;;;;;63.33;32.70;;;;;;;2.32;93.45;101157.06;5058272;28;20037;-78
2021/01/02 01:34:23;;;;;;;63.88;32.38;;;;;;;2.31;93.62;101152.78;5039649;28;20064;-79
2021/01/02 01:36:50;;;;;;;67.22;34.28;;;;;;;2.22;93.75;101159.28;5042226;28;20041;-78
2021/01/02 01:39:20;;;;;;;73.25;36.28;;;;;;;2.16;94.17;101154.44;5048481;28;20160;-78
2021/01/02 01:41:46;;;;;;;69.88;35.67;;;;;;;2.26;93.65;101159.97;5040560;28;20083;-78
2021/01/02 01:44:49;;;;;;;70.35;36.40;;;;;;;2.31;93.79;101166.56;5053233;28;20025;-78
2021/01/02 01:47:34;;;;;;;64.15;31.95;;;;;;;2.32;94.05;101157.88;5036354;28;20053;-77
2021/01/02 01:50:14;;;;;;;64.18;33.22;;;;;;;2.33;93.85;101169.06;5043889;28;20041;-77
2021/01/02 01:52:43;;;;;;;61.85;31.70;;;;;;;2.41;93.59;101160.88;5035238;28;20037;-79
2021/01/02 01:55:13;;;;;;;60.47;31.90;;;;;;;2.39;93.43;101166.16;5048661;28;20072;-77
2021/01/02 01:57:40;;;;;;;59.40;31.45;;;;;;;2.48;93.15;101164.81;5034283;28;20092;-77
2021/01/02 02:00:11;;;;;;;58.47;30.80;;;;;;;2.44;93.18;101165.91;5051005;28;20043;-78
2021/01/02 02:02:40;;;;;;;62.63;31.25;;;;;;;2.39;93.82;101170.50;5040686;28;20056;-79
2021/01/02 02:05:07;;;;;;;60.63;31.17;;;;;;;2.32;94.23;101173.41;5026473;28;20040;-77
2021/01/02 02:07:40;;;;;;;61.78;30.75;;;;;;;2.40;93.89;101164.41;5033698;28;20573;-77
2021/01/02 02:10:07;;;;;;;53.42;28.92;;;;;;;2.37;93.72;101173.16;5039874;28;20037;-78
2021/01/02 02:12:34;;;;;;;60.40;29.98;;;;;;;2.33;94.34;101174.25;5050190;28;20549;-77
2021/01/02 02:14:59;;;;;;;52.92;29.95;;;;;;;2.42;93.72;101176.34;5034610;28;20033;-77
2021/01/02 02:17:47;;;;;;;60.10;29.98;;;;;;;2.49;93.06;101177.69;5035305;28;20415;-79
2021/01/02 02:20:19;;;;;;;54.80;29.40;;;;;;;2.49;93.12;101179.44;5024495;28;20048;-78
2021/01/02 02:22:44;;;;;;;56.85;30.48;;;;;;;2.58;92.57;101178.09;5045779;28;20714;-80
2021/01/02 02:25:13;;;;;;;59.15;31.42;;;;;;;2.65;92.13;101176.84;5032872;28;20030;-77
2021/01/02 02:27:41;;;;;;;60.85;30.50;;;;;;;2.61;92.91;101172.75;5042704;28;20039;-79
2021/01/02 02:30:10;;;;;;;59.97;30.90;;;;;;;2.62;92.49;101171.81;5051682;28;20033;-81
2021/01/02 02:32:44;;;;;;;57.97;30.80;;;;;;;2.60;92.38;101171.94;5047598;28;20044;-79
2021/01/02 02:35:12;;;;;;;60.53;31.40;;;;;;;2.51;92.89;101170.66;5036439;28;20510;-78
2021/01/02 02:37:40;;;;;;;64.75;32.17;;;;;;;2.53;93.04;101168.00;5019320;28;20057;-80
2021/01/02 02:40:08;;;;;;;61.08;32.58;;;;;;;2.50;93.22;101170.75;5030331;28;20037;-78
2021/01/02 02:42:37;;;;;;;58.92;32.05;;;;;;;2.54;93.05;101177.41;5022085;28;20033;-80
2021/01/02 02:45:08;;;;;;;59.33;32.60;;;;;;;2.59;93.06;101182.38;5046908;28;20116;-79
2021/01/02 02:47:35;;;;;;;62.80;33.22;;;;;;;2.55;93.05;101173.09;5032200;28;20037;-80
2021/01/02 02:50:02;;;;;;;65.93;33.08;;;;;;;2.49;93.34;101167.34;5047725;28;20033;-81
2021/01/02 02:52:42;;;;;;;62.80;33.28;;;;;;;2.48;93.13;101163.06;5026317;28;20045;-79
2021/01/02 02:55:08;;;;;;;65.85;33.45;;;;;;;2.52;93.10;101174.94;5021096;28;20029;-79
2021/01/02 02:57:42;;;;;;;60.38;32.92;;;;;;;2.43;92.97;101174.59;5049534;28;20029;-80
2021/01/02 03:00:08;;;;;;;61.05;32.00;;;;;;;2.33;93.48;101182.84;5026164;28;20647;-79
2021/01/02 03:02:34;;;;;;;63.45;33.47;;;;;;;2.26;94.00;101180.66;5038707;28;20028;-79
2021/01/02 03:05:03;;;;;;;63.33;33.75;;;;;;;2.24;93.74;101179.91;5032134;28;20090;-80
2021/01/02 03:07:28;;;;;;;68.40;35.08;;;;;;;2.24;93.61;101180.78;5049150;28;20495;-79
2021/01/02 03:09:54;;;;;;;64.80;34.53;;;;;;;2.20;93.90;101193.94;5037662;28;20033;-80
2021/01/02 03:12:20;;;;;;;65.82;33.70;;;;;;;2.18;93.67;101186.25;5017025;28;20028;-79
2021/01/02 03:14:45;;;;;;;64.80;34.13;;;;;;;2.05;94.33;101180.88;5047926;28;20032;-79
2021/01/02 03:17:11;;;;;;;65.03;33.72;;;;;;;2.04;94.42;101193.94;5032018;28;20045;-79
2021/01/02 03:19:36;;;;;;;64.20;34.22;;;;;;;2.08;93.78;101195.44;5017010;28;20044;-79
2021/01/02 03:22:02;;;;;;;64.97;34.72;;;;;;;2.01;93.97;101187.16;5069366;28;20044;-81
2021/01/02 03:24:28;;;;;;;73.97;35.13;;;;;;;2.04;94.37;101189.59;5045766;28;20041;-79
2021/01/02 03:26:53;;;;;;;70.30;34.70;;;;;;;2.07;94.23;101196.34;5030954;28;20037;-78
2021/01/02 03:29:19;;;;;;;68.43;34.90;;;;;;;2.07;94.00;101206.69;5063970;28;20037;-80
2021/01/02 03:31:44;;;;;;;63.75;33.45;;;;;;;2.06;94.39;101205.03;5031874;28;20411;-80
2021/01/02 03:34:10;;;;;;;67.43;35.15;;;;;;;2.03;94.43;101195.66;5048846;28;20029;-79
2021/01/02 03:36:35;;;;;;;67.15;34.40;;;;;;;2.07;94.47;101207.53;5051742;28;20394;-80
2021/01/02 03:39:01;;;;;;;65.90;34.22;;;;;;;2.09;94.20;101204.84;5052653;28;20202;-80
2021/01/02 03:41:28;;;;;;;68.53;35.42;;;;;;;2.17;94.59;101204.44;5048324;28;20060;-79
2021/01/02 03:43:54;;;;;;;70.93;35.40;;;;;;;2.16;94.59;101213.97;5050821;28;20029;-80
2021/01/02 03:46:25;;;;;;;70.10;34.63;;;;;;;2.11;94.55;101205.59;5041748;28;20149;-79
2021/01/02 03:48:51;;;;;;;61.58;32.50;;;;;;;2.17;94.97;101213.06;5029448;28;20049;-79
2021/01/02 03:51:21;;;;;;;60.38;32.60;;;;;;;2.15;95.21;101217.50;5050433;28;20044;-79
2021/01/02 03:53:47;;;;;;;62.58;33.63;;;;;;;2.13;95.02;101214.97;5040207;28;20041;-80
2021/01/02 03:56:12;;;;;;;67.20;34.00;;;;;;;2.24;94.94;101210.97;5004321;28;20652;-78
2021/01/02 03:58:38;;;;;;;60.70;33.67;;;;;;;2.28;94.79;101202.13;5049156;28;20094;-80
2021/01/02 04:01:03;;;;;;;67.53;35.33;;;;;;;2.31;94.69;101209.75;5043737;28;20033;-79
2021/01/02 04:03:29;;;;;;;66.55;32.55;;;;;;;2.33;94.64;101215.66;5037758;28;20045;-80
2021/01/02 04:05:54;;;;;;;58.58;31.23;;;;;;;2.32;94.92;101214.84;5055781;28;20091;-81
2021/01/02 04:08:20;;;;;;;62.30;32.13;;;;;;;2.32;94.44;101208.84;5040183;28;20063;-81
2021/01/02 04:10:45;;;;;;;56.13;30.92;;;;;;;2.39;94.13;101211.91;5074836;28;20029;-78
2021/01/02 04:13:11;;;;;;;57.25;30.10;;;;;;;2.43;94.56;101222.03;5070467;28;20021;-77
2021/01/02 04:15:36;;;;;;;54.28;30.70;;;;;;;2.46;94.41;101215.84;5062412;28;20041;-79
2021/01/02 04:18:02;;;;;;;59.35;31.20;;;;;;;2.46;94.15;101221.88;5046610;28;20043;-78
2021/01/02 04:20:27;;;;;;;54.55;30.88;;;;;;;2.47;94.00;101210.59;5046409;28;20690;-80
2021/01/02 04:22:53;;;;;;;57.92;30.85;;;;;;;2.41;94.37;101210.09;5047353;28;20158;-79
2021/01/02 04:25:18;;;;;;;53.95;29.80;;;;;;;2.48;94.78;101219.19;5049880;28;20037;-79
2021/01/02 04:27:44;;;;;;;56.92;31.45;;;;;;;2.44;94.85;101217.69;5029518;28;20411;-78
2021/01/02 04:30:10;;;;;;;56.42;30.52;;;;;;;2.46;95.04;101210.69;5040702;28;20115;-80
2021/01/02 04:32:35;;;;;;;62.60;30.70;;;;;;;2.51;94.61;101204.34;5021034;28;20094;-82
2021/01/02 04:35:01;;;;;;;57.53;30.83;;;;;;;2.53;94.70;101204.25;5047902;28;20041;-81
2021/01/02 04:37:28;;;;;;;60.10;31.40;;;;;;;2.51;94.13;101204.34;5055328;28;20033;-80
2021/01/02 04:39:54;;;;;;;59.47;30.58;;;;;;;2.58;94.13;101209.16;5053873;28;20044;-80
2021/01/02 04:42:22;;;;;;;52.63;29.23;;;;;;;2.52;94.57;101221.56;5033321;28;20121;-80
2021/01/02 04:44:49;;;;;;;54.80;30.73;;;;;;;2.52;94.25;101220.69;5038546;28;20118;-81
2021/01/02 04:47:15;;;;;;;52.53;30.10;;;;;;;2.53;94.67;101219.78;5055429;28;20045;-80
2021/01/02 04:49:41;;;;;;;54.28;28.65;;;;;;;2.50;94.61;101218.19;5051783;28;20120;-81
2021/01/02 04:52:09;;;;;;;57.35;32.08;;;;;;;2.66;94.01;101212.19;5042393;28;20487;-82
2021/01/02 04:54:40;;;;;;;51.47;28.45;;;;;;;2.63;94.03;101215.78;5033371;28;20562;-82
2021/01/02 04:57:08;;;;;;;59.75;31.17;;;;;;;2.62;93.83;101215.84;5024183;28;20052;-80
2021/01/02 04:59:35;;;;;;;61.55;31.10;;;;;;;2.64;93.89;101222.63;5037558;28;20065;-80
2021/01/02 05:02:02;;;;;;;54.70;29.95;;;;;;;2.66;93.28;101214.78;5008245;28;20037;-80
2021/01/02 05:04:27;;;;;;;59.42;31.05;;;;;;;2.62;93.71;101227.06;5044555;28;20104;-79
2021/01/02 05:06:53;;;;;;;57.50;30.27;;;;;;;2.63;93.59;101222.72;5051994;28;20159;-80
2021/01/02 05:09:18;;;;;;;59.00;30.13;;;;;;;2.66;93.78;101225.97;5061959;28;20475;-79
2021/01/02 05:11:44;;;;;;;56.08;30.75;;;;;;;2.60;93.62;101228.91;5054068;28;20033;-80
2021/01/02 05:14:09;;;;;;;54.75;29.83;;;;;;;2.65;93.56;101226.88;5041493;28;20087;-80
2021/01/02 05:16:37;;;;;;;53.33;29.02;;;;;;;2.65;93.84;101233.81;5025510;28;20445;-80
2021/01/02 05:19:07;;;;;;;55.60;30.30;;;;;;;2.63;94.11;101233.91;5048995;28;20117;-78
2021/01/02 05:21:35;;;;;;;56.47;30.50;;;;;;;2.67;93.78;101240.59;5062788;28;20167;-80
2021/01/02 05:24:13;;;;;;;58.15;31.05;;;;;;;2.63;93.98;101239.09;5033760;28;20037;-80
2021/01/02 05:27:05;;;;;;;54.67;29.63;;;;;;;2.67;93.66;101242.34;5033151;28;20474;-79
2021/01/02 05:29:31;;;;;;;54.40;28.83;;;;;;;2.65;93.76;101234.66;5044607;28;20041;-80
2021/01/02 05:32:01;;;;;;;55.70;30.23;;;;;;;2.72;93.71;101237.75;5036014;28;20107;-80
2021/01/02 05:34:29;;;;;;;51.28;29.00;;;;;;;2.70;93.52;101237.00;5063292;28;20040;-79
2021/01/02 05:37:06;;;;;;;56.20;29.70;;;;;;;2.65;93.65;101242.41;5034061;28;20435;-79
2021/01/02 05:39:39;;;;;;;49.65;28.98;;;;;;;2.72;93.43;101238.59;5038705;28;20091;-81
2021/01/02 05:42:05;;;;;;;58.47;29.45;;;;;;;2.72;93.64;101235.16;5035201;28;20060;-80
2021/01/02 05:44:34;;;;;;;58.50;30.23;;;;;;;2.66;93.94;101246.69;5069267;28;20037;-80
2021/01/02 05:47:00;;;;;;;59.55;30.10;;;;;;;2.59;94.77;101255.72;5036153;28;20048;-82
2021/01/02 05:49:29;;;;;;;53.80;29.25;;;;;;;2.50;95.44;101251.84;5031896;28;20029;-80
2021/01/02 05:51:59;;;;;;;58.25;30.88;;;;;;;2.48;95.53;101256.28;5018576;28;20060;-79
2021/01/02 05:54:27;;;;;;;61.47;31.05;;;;;;;2.55;95.86;101259.38;5043463;28;20041;-79
2021/01/02 05:56:59;;;;;;;54.70;30.25;;;;;;;2.52;95.62;101254.38;5058045;28;20763;-80
2021/01/02 05:59:52;;;;;;;63.10;31.92;;;;;;;2.55;95.42;101254.22;5034437;28;20100;-80
2021/01/02 06:02:23;;;;;;;62.35;31.35;;;;;;;2.51;95.71;101265.66;5032883;28;20385;-79
2021/01/02 06:05:04;;;;;;;60.33;31.17;;;;;;;2.49;96.20;101268.31;5035174;28;20041;-80
2021/01/02 06:07:31;;;;;;;59.20;29.70;;;;;;;2.45;96.15;101260.78;5041317;28;20208;-79
2021/01/02 06:09:58;;;;;;;58.40;30.25;;;;;;;2.50;96.43;101271.75;5050054;28;20111;-80
2021/01/02 06:12:27;;;;;;;59.20;32.03;;;;;;;2.56;95.99;101268.81;5042358;28;20071;-81
2021/01/02 06:14:54;;;;;;;54.15;30.48;;;;;;;2.64;95.11;101265.84;5033340;28;20033;-79
2021/01/02 06:17:28;;;;;;;56.03;27.65;;;;;;;2.58;95.36;101273.91;5036947;28;20040;-80
2021/01/02 06:19:54;;;;;;;58.67;32.88;;;;;;;2.56;95.61;101281.75;5050851;28;20068;-80
2021/01/02 06:22:20;;;;;;;60.75;31.65;;;;;;;2.57;95.46;101275.69;5041271;28;20211;-80
2021/01/02 06:24:50;;;;;;;59.53;32.35;;;;;;;2.67;94.98;101276.84;5036167;28;20092;-79
2021/01/02 06:27:17;;;;;;;57.72;31.48;;;;;;;2.75;94.38;101283.38;5030075;28;20046;-79
2021/01/02 06:29:54;;;;;;;57.55;32.05;;;;;;;2.76;94.27;101282.47;5016134;28;20099;-82
2021/01/02 06:32:21;;;;;;;56.08;32.20;;;;;;;2.77;93.82;101284.97;5051305;28;20033;-81
2021/01/02 06:35:06;;;;;;;61.13;32.35;;;;;;;2.70;94.48;101289.66;5048144;28;20039;-83
2021/01/02 06:37:51;;;;;;;62.03;31.73;;;;;;;2.70;94.42;101289.66;5029462;28;20064;-78
2021/01/02 06:40:28;;;;;;;59.92;32.03;;;;;;;2.67;94.57;101289.78;5030606;28;20549;-80
2021/01/02 06:42:55;;;;;;;61.50;30.88;;;;;;;2.68;94.32;101290.66;5058789;28;20033;-78
2021/01/02 06:45:36;;;;;;;58.65;31.65;;;;;;;2.75;94.19;101294.59;5049400;28;20037;-78
2021/01/02 06:48:17;;;;;;;56.28;31.65;;;;;;;2.71;94.35;101306.00;5044949;28;20045;-79
2021/01/02 06:50:47;;;;;;;61.22;31.58;;;;;;;2.71;94.01;101301.69;5047818;28;20037;-78
2021/01/02 06:53:23;;;;;;;52.58;28.67;;;;;;;2.60;94.80;101300.56;5040518;28;20103;-78
2021/01/02 06:56:05;;;;;;;68.03;33.85;;;;;;;2.50;94.99;101306.22;5009947;28;20036;-78
2021/01/02 06:58:38;;;;;;;59.63;31.33;;;;;;;2.49;95.50;101312.34;5052275;28;20507;-78
2021/01/02 07:01:05;;;;;;;58.78;31.65;;;;;;;2.51;95.61;101309.69;5031568;28;20051;-78
2021/01/02 07:03:39;;;;;;;57.50;30.48;;;;;;;2.55;95.41;101313.78;5043968;28;20045;-78
2021/01/02 07:09:11;;;;;;;60.88;32.83;;;;;;;2.77;94.27;101312.63;5048580;28;20124;-79
2021/01/02 07:11:44;;;;;;;56.58;31.15;;;;;;;2.70;93.90;101312.13;5017103;28;20040;-78
2021/01/02 07:17:02;;;;;;;57.67;31.50;;;;;;;2.73;93.73;101314.53;5033854;28;20037;-79
2021/01/02 07:19:55;;;;;;;58.13;31.88;;;;;;;2.69;93.85;101323.41;5016736;28;20203;-79
2021/01/02 07:22:24;;;;;;;55.83;30.38;;;;;;;2.63;93.88;101321.13;5017799;28;20049;-80
2021/01/02 07:24:57;;;;;;;59.33;32.65;;;;;;;2.70;93.94;101331.09;5012585;28;20115;-81
2021/01/02 07:27:25;;;;;;;65.82;34.15;;;;;;;2.69;93.88;101334.63;5042116;28;20414;-80
2021/01/02 07:29:53;;;;;;;59.63;33.03;;;;;;;2.70;93.71;101338.88;5038555;28;20100;-80
2021/01/02 07:32:21;;;;;;;64.18;33.85;;;;;;;2.67;93.69;101341.59;5051345;28;20033;-79
2021/01/02 07:34:51;;;;;;;58.83;32.60;;;;;;;2.64;93.59;101339.19;5043212;28;20037;-80
2021/01/02 07:37:21;;;;;;;61.47;32.55;;;;;;;2.68;93.87;101351.06;5034505;28;20032;-80
2021/01/02 07:40:04;;;;;;;61.83;33.45;;;;;;;2.67;93.55;101344.19;5045212;28;20065;-78
2021/01/02 07:42:32;;;;;;;59.58;33.28;;;;;;;2.67;93.82;101354.56;5045884;28;20037;-80
2021/01/02 07:45:09;;;;;;;60.85;32.88;;;;;;;2.71;93.37;101361.28;5043874;28;20056;-79
2021/01/02 07:47:46;;;;;;;69.13;34.65;;;;;;;2.71;93.30;101357.81;5062310;28;20488;-78
2021/01/02 07:50:15;;;;;;;63.22;32.95;;;;;;;2.66;93.81;101358.09;5048440;28;20057;-79
2021/01/02 07:52:54;;;;;;;61.47;34.25;;;;;;;2.70;93.65;101372.53;5036898;28;20616;-80
2021/01/02 07:55:25;;;;;;;60.08;32.38;;;;;;;2.63;93.92;101371.19;5051531;28;20068;-79
2021/01/02 07:57:51;;;;;;;63.20;34.30;;;;;;;2.59;93.82;101369.66;5064553;28;20028;-81
2021/01/02 08:00:17;;;;;;;67.20;34.78;;;;;;;2.62;93.45;101381.63;5034322;28;20040;-80
2021/01/02 08:02:43;;;;;;;66.47;35.28;;;;;;;2.63;93.76;101378.94;5043314;28;20120;-80
2021/01/02 08:05:13;;;;;;;74.05;36.97;;;;;;;2.56;93.75;101379.34;5040621;28;20121;-80
2021/01/02 08:07:41;;;;;;;72.20;35.22;;;;;;;2.61;93.46;101387.72;5045835;28;20028;-79
2021/01/02 08:10:12;;;;;;;70.57;36.05;;;;;;;2.62;93.81;101399.75;5048557;28;20462;-79
2021/01/02 08:12:46;;;;;;;72.68;34.88;;;;;;;2.68;93.71;101402.03;5034732;28;20076;-79
2021/01/02 08:15:15;;;;;;;73.18;36.50;;;;;;;2.61;94.21;101405.84;5040242;28;20033;-79
2021/01/02 08:17:41;;;;;;;73.82;36.85;;;;;;;2.61;93.92;101406.69;5049155;28;20094;-80
2021/01/02 08:20:08;;;;;;;68.00;35.63;;;;;;;2.60;93.91;101402.44;5056843;28;20025;-79
2021/01/02 08:22:36;;;;;;;75.82;37.53;;;;;;;2.57;94.08;101404.34;5024178;28;20415;-79
2021/01/02 08:25:10;;;;;;;69.47;35.45;;;;;;;2.58;93.88;101404.28;5050495;28;20029;-81
2021/01/02 08:27:36;;;;;;;70.68;35.97;;;;;;;2.59;94.03;101412.88;5041817;28;20068;-80
2021/01/02 08:30:06;;;;;;;69.53;35.80;;;;;;;2.63;93.72;101412.63;5030396;28;20494;-80
2021/01/02 08:32:35;;;;;;;71.07;36.75;;;;;;;2.62;94.02;101415.28;5034387;28;20041;-80
2021/01/02 08:35:01;;;;;;;73.32;38.00;;;;;;;2.64;93.93;101416.91;5047256;28;20145;-80
2021/01/02 08:37:27;;;;;;;67.88;36.20;;;;;;;2.64;93.66;101424.66;5049911;28;20471;-79
2021/01/02 08:40:10;;;;;;;73.25;36.30;;;;;;;2.55;94.30;101422.56;5031046;28;20033;-79
2021/01/02 08:42:41;;;;;;;72.95;35.35;;;;;;;2.62;93.89;101423.06;5024780;28;20674;-79
2021/01/02 08:45:09;;;;;;;73.93;37.10;;;;;;;2.59;93.76;101423.22;5022340;28;20124;-80
2021/01/02 08:47:36;;;;;;;67.88;36.40;;;;;;;2.65;93.83;101433.28;5030886;28;20045;-80
2021/01/02 08:50:27;;;;;;;66.72;35.22;;;;;;;2.66;93.83;101432.38;5044338;28;20036;-80
2021/01/02 08:52:53;;;;;;;72.55;35.72;;;;;;;2.57;93.94;101425.06;5048875;28;20067;-79
2021/01/02 08:55:19;;;;;;;79.55;36.78;;;;;;;2.55;94.19;101439.84;5049138;28;20515;-79
2021/01/02 08:57:53;;;;;;;78.45;37.45;;;;;;;2.61;94.01;101439.53;5036376;28;20031;-82
2021/01/02 09:00:26;;;;;;;75.03;37.28;;;;;;;2.60;93.78;101443.88;5026880;28;20072;-82
2021/01/02 09:02:51;;;;;;;;;;;;;;;2.60;94.35;101450.78;5066758;28;20037;-79
2021/01/02 09:05:25;;;;;;;73.38;34.35;;;;;;;2.64;93.71;101441.97;5051105;28;19923;-78
2021/01/02 09:08:03;;;;;;;72.57;35.38;;;;;;;2.68;93.72;101448.66;5037662;28;20128;-80
2021/01/02 09:10:34;;;;;;;65.05;33.65;;;;;;;2.65;93.72;101448.81;5034488;28;20107;-81
2021/01/02 09:12:59;;;;;;;69.75;36.03;;;;;;;2.66;93.57;101448.75;5038799;28;20037;-80
2021/01/02 09:15:43;;;;;;;66.50;33.72;;;;;;;2.71;93.49;101457.13;5011382;28;20083;-79
2021/01/02 09:18:10;;;;;;;71.28;35.10;;;;;;;2.70;93.51;101459.78;5034308;28;20095;-80
2021/01/02 09:20:35;;;;;;;70.28;34.20;;;;;;;2.66;93.33;101466.03;5049958;28;20500;-80
2021/01/02 09:23:01;;;;;;;71.80;34.70;;;;;;;2.65;93.39;101454.81;5045925;28;20047;-79
2021/01/02 09:25:28;;;;;;;66.70;34.35;;;;;;;2.69;93.73;101463.28;5032502;28;20476;-79
2021/01/02 09:27:55;;;;;;;66.15;34.50;;;;;;;2.78;93.05;101461.97;5056267;28;20025;-80
2021/01/02 09:30:21;;;;;;;66.30;35.45;;;;;;;2.75;93.34;101467.31;5024139;28;20118;-78
2021/01/02 09:32:46;;;;;;;63.47;33.88;;;;;;;2.73;93.08;101460.47;5047789;28;20120;-79
2021/01/02 09:35:12;;;;;;;66.88;34.38;;;;;;;2.73;93.20;101465.66;5046606;28;20119;-79
2021/01/02 09:37:38;;;;;;;67.65;33.60;;;;;;;2.73;93.33;101469.97;5037486;28;20033;-78
2021/01/02 09:40:15;;;;;;;65.70;33.72;;;;;;;2.82;92.77;101479.88;5033034;28;20086;-78
2021/01/02 09:42:42;;;;;;;69.15;34.17;;;;;;;2.84;92.84;101483.22;5051604;28;20639;-78
2021/01/02 09:45:08;;;;;;;70.20;34.92;;;;;;;2.86;92.65;101483.16;5045326;28;20029;-80
2021/01/02 09:47:33;;;;;;;63.22;32.95;;;;;;;2.80;93.33;101478.28;5055129;28;20037;-79
2021/01/02 09:49:59;;;;;;;63.72;32.25;;;;;;;2.84;92.65;101477.22;5037154;28;20033;-78
2021/01/02 09:52:24;;;;;;;65.85;33.58;;;;;;;2.83;93.21;101475.56;5052903;28;20651;-80
2021/01/02 09:54:50;;;;;;;68.10;35.42;;;;;;;2.88;92.65;101483.91;5036253;28;20029;-79
2021/01/02 09:57:15;;;;;;;72.00;35.60;;;;;;;2.91;92.78;101481.16;5068813;28;20119;-79
2021/01/02 09:59:44;;;;;;;67.45;34.63;;;;;;;2.86;92.81;101472.78;5050840;28;20043;-79
2021/01/02 10:02:09;;;;;;;67.25;34.40;;;;;;;2.97;93.06;101491.22;5041384;28;20033;-80
2021/01/02 10:04:44;;;;;;;69.53;35.80;;;;;;;3.01;92.31;101492.72;5037658;28;20040;-80
2021/01/02 10:07:10;;;;;;;66.55;34.30;;;;;;;3.00;92.51;101490.22;5036891;28;20056;-80
2021/01/02 10:09:44;;;;;;;71.20;35.78;;;;;;;3.01;92.56;101490.13;5062892;28;20398;-80
2021/01/02 10:12:10;;;;;;;69.07;35.65;;;;;;;3.00;92.38;101493.66;5036316;28;20369;-78
2021/01/02 10:14:37;;;;;;;65.25;34.13;;;;;;;2.99;92.82;101501.50;5051161;28;20124;-79
2021/01/02 10:17:04;;;;;;;121.32;43.13;;;;;;;2.91;93.11;101500.13;5032391;28;20052;-78
2021/01/02 10:19:31;;;;;;;100.03;40.30;;;;;;;2.95;92.54;101497.41;5025442;28;20120;-81
2021/01/02 10:21:57;;;;;;;70.75;34.42;;;;;;;2.91;92.78;101494.94;5045077;28;20037;-77
2021/01/02 10:24:23;;;;;;;68.75;34.88;;;;;;;2.91;93.13;101502.72;5065500;28;20028;-79
2021/01/02 10:26:48;;;;;;;137.85;48.55;;;;;;;2.91;93.51;101500.13;5051996;28;20115;-78
2021/01/02 10:29:14;;;;;;;76.82;38.58;;;;;;;2.87;93.96;101505.56;5036041;28;20033;-79
2021/01/02 10:31:40;;;;;;;90.15;38.00;;;;;;;2.82;94.31;101504.94;5053462;28;20037;-79
2021/01/02 10:34:07;;;;;;;71.22;35.70;;;;;;;3.06;92.61;101498.50;5045832;28;20068;-79
2021/01/02 10:36:32;;;;;;;69.32;35.38;;;;;;;3.06;92.54;101506.28;5030848;28;20033;-78
2021/01/02 10:38:58;;;;;;;72.25;36.47;;;;;;;3.04;92.89;101504.72;5044866;28;20036;-79
2021/01/02 10:41:23;;;;;;;65.75;34.28;;;;;;;3.05;93.09;101501.19;5067179;28;20035;-79
2021/01/02 10:43:49;;;;;;;76.07;36.20;;;;;;;2.98;93.62;101490.31;5027546;28;20119;-78
2021/01/02 10:46:15;;;;;;;68.85;36.72;;;;;;;3.07;93.21;101500.19;5045377;28;20030;-78
2021/01/02 10:48:41;;;;;;;70.32;35.65;;;;;;;3.03;93.70;101501.28;5041255;28;20520;-79
2021/01/02 10:51:15;;;;;;;73.13;36.47;;;;;;;3.03;94.31;101505.59;5022246;28;20041;-79
2021/01/02 10:53:41;;;;;;;74.72;35.25;;;;;;;2.92;94.30;101501.81;5040602;28;20041;-78
2021/01/02 10:56:19;;;;;;;69.78;36.08;;;;;;;2.93;94.73;101513.84;5049040;28;20029;-79
2021/01/02 10:58:44;;;;;;;68.03;36.97;;;;;;;3.01;94.76;101504.84;5056702;28;20033;-80
2021/01/02 11:01:12;;;;;;;79.03;38.40;;;;;;;3.01;94.24;101512.63;5026963;28;20041;-79
2021/01/02 11:03:37;;;;;;;71.38;36.58;;;;;;;2.98;94.27;101508.44;5051387;28;20100;-79
2021/01/02 11:06:06;;;;;;;73.47;38.28;;;;;;;2.97;94.37;101511.13;5049360;28;20559;-80
2021/01/02 11:08:36;;;;;;;78.10;37.92;;;;;;;2.99;94.70;101511.88;5040098;28;20040;-80
2021/01/02 11:11:03;;;;;;;73.43;36.95;;;;;;;2.94;94.48;101506.94;5046319;28;20040;-79
2021/01/02 11:13:29;;;;;;;67.03;35.08;;;;;;;2.92;94.72;101519.97;5038882;28;20049;-80
2021/01/02 11:15:54;;;;;;;67.57;35.03;;;;;;;2.97;94.77;101508.53;5040262;28;20115;-78
2021/01/02 11:18:20;;;;;;;64.05;33.70;;;;;;;2.97;94.62;101506.75;5028029;28;20033;-78
2021/01/02 11:20:47;;;;;;;63.55;34.45;;;;;;;2.95;95.14;101507.75;5052535;28;20041;-79
2021/01/02 11:23:15;;;;;;;66.22;33.97;;;;;;;2.98;95.21;101511.03;5067398;28;20028;-80
2021/01/02 11:25:41;;;;;;;64.53;34.58;;;;;;;3.07;94.34;101504.53;5018358;28;20083;-79
2021/01/02 11:28:07;;;;;;;65.43;35.35;;;;;;;3.03;94.43;101506.47;5044885;28;20495;-79
2021/01/02 11:30:32;;;;;;;64.53;32.50;;;;;;;3.07;94.27;101501.94;5045041;28;20052;-79
2021/01/02 11:32:57;;;;;;;67.68;34.13;;;;;;;3.01;94.27;101494.47;5050037;28;20037;-80
2021/01/02 11:35:23;;;;;;;68.47;34.42;;;;;;;3.15;93.81;101496.38;5048050;28;20041;-79
2021/01/02 11:37:48;;;;;;;57.70;31.38;;;;;;;3.08;94.49;101494.09;5047285;28;20040;-80